createdAt,value
2023-02-23T00:01:19.910Z,15.63
2023-02-23T00:04:00.231Z,17.13
2023-02-23T00:06:36.739Z,18.20
2023-02-23T00:09:13.512Z,16.97
2023-02-23T00:11:43.317Z,19.00
2023-02-23T00:14:15.546Z,17.40
2023-02-23T00:16:51.072Z,15.13
2023-02-23T00:19:24.986Z,16.90
2023-02-23T00:22:01.903Z,18.40
2023-02-23T00:24:38.862Z,17.60
2023-02-23T00:27:13.501Z,18.87
2023-02-23T00:29:43.980Z,17.93
2023-02-23T00:32:15.666Z,17.30
2023-02-23T00:34:45.082Z,17.57
2023-02-23T00:37:15.797Z,17.83
2023-02-23T00:39:46.209Z,17.63
2023-02-23T00:42:16.905Z,16.30
2023-02-23T00:44:49.346Z,20.03
2023-02-23T00:47:23.888Z,16.27
2023-02-23T00:49:57.950Z,15.43
2023-02-23T00:52:33.007Z,17.83
2023-02-23T00:55:07.647Z,22.30
2023-02-23T00:57:44.431Z,18.50
2023-02-23T01:00:28.749Z,21.93
2023-02-23T01:02:59.982Z,17.73
2023-02-23T01:05:32.242Z,19.07
2023-02-23T01:08:09.599Z,21.63
2023-02-23T01:10:46.900Z,16.30
2023-02-23T01:13:18.533Z,17.87
2023-02-23T01:15:49.133Z,21.23
2023-02-23T01:18:20.053Z,21.97
2023-02-23T01:20:52.183Z,19.03
2023-02-23T01:23:27.001Z,19.43
2023-02-23T01:25:57.421Z,19.00
2023-02-23T01:28:33.551Z,19.50
2023-02-23T01:31:03.033Z,21.87
2023-02-23T01:33:34.304Z,23.87
2023-02-23T01:36:03.848Z,26.57
2023-02-23T01:38:37.315Z,19.50
2023-02-23T01:41:11.439Z,20.43
2023-02-23T01:44:07.493Z,18.13
2023-02-23T01:46:40.114Z,20.40
2023-02-23T01:49:11.971Z,21.87
2023-02-23T01:51:44.417Z,22.60
2023-02-23T01:54:20.477Z,20.57
2023-02-23T01:56:58.424Z,20.27
2023-02-23T01:59:35.291Z,20.27
2023-02-23T02:02:09.104Z,18.17
2023-02-23T02:04:52.435Z,21.40
2023-02-23T02:07:26.298Z,24.17
2023-02-23T02:10:15.309Z,20.37
2023-02-23T02:12:54.300Z,20.70
2023-02-23T02:15:27.687Z,20.57
2023-02-23T02:18:03.440Z,22.00
2023-02-23T02:20:55.134Z,19.40
2023-02-23T02:24:09.563Z,21.67
2023-02-23T02:27:03.298Z,20.23
2023-02-23T02:30:14.091Z,18.30
2023-02-23T02:33:32.206Z,20.60
2023-02-23T02:36:27.122Z,18.93
2023-02-23T02:39:35.980Z,21.43
2023-02-23T02:42:15.168Z,23.00
2023-02-23T02:44:59.371Z,18.77
2023-02-23T02:47:33.120Z,18.63
2023-02-23T02:50:18.045Z,22.60
2023-02-23T02:52:54.887Z,23.23
2023-02-23T02:55:42.387Z,22.37
2023-02-23T02:58:16.217Z,24.93
2023-02-23T03:01:07.292Z,20.73
2023-02-23T03:03:57.700Z,25.23
2023-02-23T03:06:49.741Z,21.83
2023-02-23T03:09:46.917Z,26.13
2023-02-23T03:12:53.156Z,26.00
2023-02-23T03:16:19.159Z,22.23
2023-02-23T03:19:17.145Z,21.17
2023-02-23T03:22:08.234Z,21.03
2023-02-23T03:25:05.677Z,23.87
2023-02-23T03:28:04.171Z,22.70
2023-02-23T03:31:01.247Z,22.10
2023-02-23T03:33:58.535Z,24.03
2023-02-23T03:36:47.201Z,22.57
2023-02-23T03:39:43.180Z,18.73
2023-02-23T03:42:37.998Z,22.17
2023-02-23T03:45:30.235Z,19.70
2023-02-23T03:48:19.909Z,23.97
2023-02-23T03:51:13.599Z,19.53
2023-02-23T03:54:07.892Z,22.60
2023-02-23T03:56:59.215Z,19.90
2023-02-23T03:59:50.236Z,21.50
2023-02-23T04:02:42.420Z,21.57
2023-02-23T04:05:34.206Z,24.30
2023-02-23T04:08:28.478Z,24.23
2023-02-23T04:11:25.230Z,21.40
2023-02-23T04:14:02.792Z,24.13
2023-02-23T04:16:32.629Z,21.07
2023-02-23T04:19:16.201Z,23.03
2023-02-23T04:21:44.571Z,23.77
2023-02-23T04:24:21.055Z,21.80
2023-02-23T04:26:52.631Z,19.70
2023-02-23T04:29:30.611Z,21.83
2023-02-23T04:32:01.348Z,24.27
2023-02-23T04:34:32.590Z,23.13
2023-02-23T04:37:00.913Z,22.97
2023-02-23T04:39:30.508Z,20.97
2023-02-23T04:42:01.547Z,25.00
2023-02-23T04:44:38.255Z,21.60
2023-02-23T04:47:07.566Z,22.73
2023-02-23T04:49:53.695Z,22.47
2023-02-23T04:52:23.537Z,23.33
2023-02-23T04:54:52.971Z,19.63
2023-02-23T04:57:34.049Z,23.57
2023-02-23T05:00:05.922Z,22.47
2023-02-23T05:02:34.422Z,21.00
2023-02-23T05:05:05.694Z,25.50
2023-02-23T05:07:36.661Z,23.73
2023-02-23T05:10:11.058Z,24.10
2023-02-23T05:12:42.962Z,22.50
2023-02-23T05:15:12.773Z,19.20
2023-02-23T05:17:49.871Z,27.33
2023-02-23T05:20:29.241Z,19.00
2023-02-23T05:23:00.595Z,23.17
2023-02-23T05:25:33.676Z,21.87
2023-02-23T05:28:03.490Z,20.43
2023-02-23T05:30:36.777Z,20.27
2023-02-23T05:33:06.965Z,19.10
2023-02-23T05:35:41.144Z,24.40
2023-02-23T05:38:14.932Z,22.00
2023-02-23T05:40:44.515Z,21.70
2023-02-23T05:43:13.004Z,21.13
2023-02-23T05:45:52.499Z,20.83
2023-02-23T05:48:24.124Z,20.23
2023-02-23T05:51:05.429Z,20.90
2023-02-23T05:53:36.761Z,26.73
2023-02-23T05:56:09.106Z,22.10
2023-02-23T05:58:38.056Z,22.00
2023-02-23T06:01:07.310Z,28.13
2023-02-23T06:03:55.762Z,24.60
2023-02-23T06:06:28.602Z,27.63
2023-02-23T06:08:59.414Z,24.87
2023-02-23T06:11:33.056Z,26.87
2023-02-23T06:14:02.635Z,25.00
2023-02-23T06:16:33.817Z,23.33
2023-02-23T06:19:05.732Z,25.40
2023-02-23T06:21:38.195Z,25.33
2023-02-23T06:24:15.494Z,25.43
2023-02-23T06:26:47.371Z,22.90
2023-02-23T06:29:17.151Z,24.57
2023-02-23T06:31:47.746Z,27.60
2023-02-23T06:34:21.586Z,24.80
2023-02-23T06:36:54.182Z,23.30
2023-02-23T06:39:28.879Z,22.43
2023-02-23T06:41:59.357Z,26.60
2023-02-23T06:44:31.098Z,25.40
2023-02-23T06:47:09.082Z,23.80
2023-02-23T06:49:44.616Z,28.47
2023-02-23T06:52:15.064Z,23.40
2023-02-23T06:54:43.426Z,24.67
2023-02-23T06:57:11.799Z,25.03
2023-02-23T06:59:43.583Z,24.90
2023-02-23T07:02:19.936Z,30.73
2023-02-23T07:04:49.328Z,24.67
2023-02-23T07:07:27.242Z,28.60
2023-02-23T07:09:57.610Z,26.23
2023-02-23T07:12:28.432Z,27.53
2023-02-23T07:15:03.163Z,26.23
2023-02-23T07:17:33.776Z,25.80
2023-02-23T07:20:10.251Z,25.63
2023-02-23T07:22:42.716Z,25.30
2023-02-23T07:25:16.743Z,25.63
2023-02-23T07:27:48.652Z,24.13
2023-02-23T07:30:19.840Z,27.37
2023-02-23T07:32:49.034Z,26.30
2023-02-23T07:35:19.884Z,25.40
2023-02-23T07:38:00.165Z,23.53
2023-02-23T07:40:29.634Z,28.87
2023-02-23T07:43:08.071Z,28.93
2023-02-23T07:45:36.583Z,25.67
2023-02-23T07:48:16.437Z,25.00
2023-02-23T07:50:50.064Z,26.00
2023-02-23T07:53:22.380Z,27.50
2023-02-23T07:55:57.409Z,31.60
2023-02-23T07:58:26.759Z,30.33
2023-02-23T08:00:57.041Z,27.53
2023-02-23T08:03:26.312Z,29.30
2023-02-23T08:05:59.883Z,32.43
2023-02-23T08:08:41.508Z,25.20
2023-02-23T08:11:25.048Z,29.10
2023-02-23T08:14:02.186Z,30.13
2023-02-23T08:16:42.779Z,23.57
2023-02-23T08:19:14.799Z,26.80
2023-02-23T08:21:46.599Z,23.67
2023-02-23T08:24:24.146Z,22.90
2023-02-23T08:26:55.933Z,25.83
2023-02-23T08:29:24.668Z,24.70
2023-02-23T08:31:56.332Z,25.60
2023-02-23T08:34:26.548Z,22.27
2023-02-23T08:36:54.614Z,22.87
2023-02-23T08:39:28.883Z,23.13
2023-02-23T08:42:00.570Z,23.93
2023-02-23T08:44:39.362Z,26.17
2023-02-23T08:47:16.537Z,24.87
2023-02-23T08:49:48.597Z,22.77
2023-02-23T08:52:18.296Z,23.20
2023-02-23T08:54:50.997Z,22.07
2023-02-23T08:57:28.019Z,28.07
2023-02-23T08:59:58.413Z,20.80
2023-02-23T09:02:32.760Z,24.30
2023-02-23T09:05:01.235Z,26.20
2023-02-23T09:07:32.772Z,24.00
2023-02-23T09:10:02.872Z,23.93
2023-02-23T09:12:34.548Z,23.03
2023-02-23T09:15:06.321Z,19.40
2023-02-23T09:17:45.014Z,23.63
2023-02-23T09:20:19.906Z,24.10
2023-02-23T09:22:50.811Z,27.60
2023-02-23T09:25:26.016Z,23.90
2023-02-23T09:27:58.405Z,25.27
2023-02-23T09:30:28.741Z,20.63
2023-02-23T09:32:58.795Z,22.77
2023-02-23T09:35:30.096Z,21.77
2023-02-23T09:38:06.199Z,22.60
2023-02-23T09:40:49.119Z,19.70
2023-02-23T09:43:27.319Z,26.80
2023-02-23T09:46:02.038Z,25.00
2023-02-23T09:48:41.648Z,25.33
2023-02-23T09:51:23.699Z,24.00
2023-02-23T09:54:00.085Z,24.53
2023-02-23T09:56:40.298Z,19.80
2023-02-23T09:59:20.776Z,21.47
2023-02-23T10:02:23.033Z,26.17
2023-02-23T10:04:57.389Z,25.00
2023-02-23T10:07:30.636Z,24.20
2023-02-23T10:10:12.000Z,28.83
2023-02-23T10:12:48.394Z,26.60
2023-02-23T10:15:32.400Z,25.43
2023-02-23T10:18:06.722Z,28.10
2023-02-23T10:20:44.083Z,25.70
2023-02-23T10:23:16.788Z,27.10
2023-02-23T10:25:49.961Z,24.80
2023-02-23T10:28:31.118Z,27.03
2023-02-23T10:31:01.896Z,25.20
2023-02-23T10:33:45.215Z,21.10
2023-02-23T10:36:23.217Z,30.30
2023-02-23T10:38:54.093Z,26.37
2023-02-23T10:41:31.228Z,24.07
2023-02-23T10:44:15.653Z,24.77
2023-02-23T10:46:47.936Z,23.10
2023-02-23T10:49:24.840Z,26.20
2023-02-23T10:51:58.195Z,23.10
2023-02-23T10:54:45.794Z,24.13
2023-02-23T10:57:20.501Z,28.20
2023-02-23T11:00:11.862Z,27.67
2023-02-23T11:02:42.421Z,26.53
2023-02-23T11:05:32.397Z,25.27
2023-02-23T11:08:25.155Z,26.57
2023-02-23T11:11:17.164Z,27.67
2023-02-23T11:13:48.811Z,26.07
2023-02-23T11:16:23.512Z,27.00
2023-02-23T11:18:58.151Z,29.50
2023-02-23T11:21:35.723Z,25.50
2023-02-23T11:24:16.515Z,28.00
2023-02-23T11:26:54.935Z,27.50
2023-02-23T11:29:27.326Z,25.37
2023-02-23T11:32:10.180Z,24.50
2023-02-23T11:34:53.713Z,30.03
2023-02-23T11:37:23.760Z,29.40
2023-02-23T11:39:53.696Z,28.57
2023-02-23T11:42:33.510Z,31.33
2023-02-23T11:45:04.868Z,28.83
2023-02-23T11:47:49.952Z,29.10
2023-02-23T11:50:25.425Z,31.80
2023-02-23T11:53:01.769Z,29.00
2023-02-23T11:55:41.274Z,26.60
2023-02-23T11:58:27.021Z,30.00
2023-02-23T12:00:57.825Z,26.63
2023-02-23T12:03:44.548Z,30.83
2023-02-23T12:06:23.103Z,24.60
2023-02-23T12:08:55.743Z,26.10
2023-02-23T12:11:29.853Z,25.40
2023-02-23T12:14:06.799Z,28.70
2023-02-23T12:16:45.414Z,26.13
2023-02-23T12:19:31.956Z,30.87
2023-02-23T12:22:09.462Z,28.50
2023-02-23T12:24:51.447Z,32.10
2023-02-23T12:27:24.342Z,26.67
2023-02-23T12:30:08.442Z,28.27
2023-02-23T12:32:51.375Z,31.13
2023-02-23T12:35:29.550Z,22.93
2023-02-23T12:38:04.239Z,22.80
2023-02-23T12:40:44.337Z,26.03
2023-02-23T12:43:24.890Z,30.07
2023-02-23T12:45:56.207Z,26.30
2023-02-23T12:48:34.811Z,28.30
2023-02-23T12:51:14.285Z,27.03
2023-02-23T12:53:55.442Z,32.70
2023-02-23T12:56:39.579Z,30.67
2023-02-23T12:59:19.194Z,27.53
2023-02-23T13:01:58.326Z,30.63
2023-02-23T13:05:13.302Z,29.00
2023-02-23T13:07:52.769Z,27.30
2023-02-23T13:10:33.392Z,28.87
2023-02-23T13:13:12.837Z,28.63
2023-02-23T13:15:52.988Z,28.87
2023-02-23T13:18:27.724Z,29.90
2023-02-23T13:21:07.654Z,29.70
2023-02-23T13:23:42.966Z,38.00
2023-02-23T13:26:24.938Z,50.10
2023-02-23T13:28:58.845Z,30.23
2023-02-23T13:31:30.662Z,29.47
2023-02-23T13:34:02.160Z,34.00
2023-02-23T13:36:41.333Z,30.73
2023-02-23T13:39:39.729Z,28.47
2023-02-23T13:42:38.316Z,25.20
2023-02-23T13:45:48.659Z,29.10
2023-02-23T13:48:47.330Z,33.00
2023-02-23T13:51:32.239Z,27.30
2023-02-23T13:54:02.887Z,24.60
2023-02-23T13:56:44.100Z,27.80
2023-02-23T13:59:21.970Z,28.67
2023-02-23T14:01:54.304Z,26.10
2023-02-23T14:04:33.570Z,23.43
2023-02-23T14:07:06.893Z,21.60
2023-02-23T14:09:40.142Z,22.10
2023-02-23T14:12:31.806Z,25.47
2023-02-23T14:15:45.340Z,24.17
2023-02-23T14:18:32.952Z,23.63
2023-02-23T14:21:09.734Z,24.70
2023-02-23T14:24:18.780Z,17.97
2023-02-23T14:27:40.370Z,32.63
2023-02-23T14:30:50.039Z,24.20
2023-02-23T14:33:50.400Z,24.60
2023-02-23T14:36:46.908Z,22.13
2023-02-23T14:39:29.137Z,23.97
2023-02-23T14:42:03.104Z,22.13
2023-02-23T14:44:36.715Z,22.10
2023-02-23T14:47:15.943Z,21.50
2023-02-23T14:49:50.276Z,18.40
2023-02-23T14:52:27.972Z,19.77
2023-02-23T14:55:19.805Z,18.60
2023-02-23T14:57:56.480Z,21.40
2023-02-23T15:00:28.254Z,21.30
2023-02-23T15:03:09.273Z,17.90
2023-02-23T15:05:53.724Z,17.70
2023-02-23T15:08:25.688Z,20.70
2023-02-23T15:11:05.539Z,15.77
2023-02-23T15:16:09.058Z,17.23
2023-02-23T15:19:31.973Z,18.30
2023-02-23T15:22:28.891Z,22.63
2023-02-23T15:25:01.673Z,17.13
2023-02-23T15:27:45.196Z,17.53
2023-02-23T15:30:52.506Z,21.50
2023-02-23T15:33:28.883Z,19.43
2023-02-23T15:36:14.525Z,22.57
2023-02-23T15:38:53.020Z,23.13
2023-02-23T15:41:39.507Z,19.80
2023-02-23T15:44:18.942Z,23.30
2023-02-23T15:46:52.976Z,21.03
2023-02-23T15:49:24.785Z,23.27
2023-02-23T15:52:05.646Z,20.40
2023-02-23T15:55:00.780Z,22.33
2023-02-23T15:57:33.093Z,21.63
2023-02-23T16:00:14.387Z,20.27
2023-02-23T16:02:52.206Z,21.83
2023-02-23T16:05:25.710Z,20.90
2023-02-23T16:08:07.089Z,23.53
2023-02-23T16:10:51.305Z,21.50
2023-02-23T16:13:25.055Z,20.73
2023-02-23T16:15:56.415Z,22.57
2023-02-23T16:18:38.549Z,20.87
2023-02-23T16:21:23.529Z,19.60
2023-02-23T16:23:56.579Z,20.70
2023-02-23T16:26:52.982Z,21.10
2023-02-23T16:29:31.318Z,27.23
2023-02-23T16:32:03.541Z,29.07
2023-02-23T16:34:37.648Z,27.07
2023-02-23T16:37:20.306Z,24.10
2023-02-23T16:40:02.571Z,33.13
2023-02-23T16:42:41.254Z,26.97
2023-02-23T16:45:21.643Z,24.63
2023-02-23T16:48:02.772Z,28.30
2023-02-23T16:50:41.816Z,27.37
2023-02-23T16:53:24.377Z,23.50
2023-02-23T16:56:12.582Z,29.33
2023-02-23T16:58:52.116Z,31.93
2023-02-23T17:01:26.350Z,27.67
2023-02-23T17:03:59.679Z,28.57
2023-02-23T17:06:31.236Z,29.50
2023-02-23T17:09:10.038Z,26.13
2023-02-23T17:11:41.068Z,27.50
2023-02-23T17:14:27.547Z,27.10
2023-02-23T17:17:10.893Z,24.77
2023-02-23T17:19:53.888Z,25.67
2023-02-23T17:22:33.367Z,26.87
2023-02-23T17:25:03.285Z,27.90
2023-02-23T17:28:04.613Z,32.93
2023-02-23T17:30:46.108Z,30.63
2023-02-23T17:33:19.492Z,32.73
2023-02-23T17:35:56.069Z,29.00
2023-02-23T17:38:37.130Z,26.83
2023-02-23T17:41:12.942Z,29.40
2023-02-23T17:43:45.877Z,30.60
2023-02-23T17:46:18.387Z,26.20
2023-02-23T17:48:50.703Z,28.20
2023-02-23T17:51:25.410Z,31.20
2023-02-23T17:54:16.617Z,33.47
2023-02-23T17:56:55.128Z,30.00
2023-02-23T17:59:29.935Z,29.37
2023-02-23T18:02:22.919Z,29.20
2023-02-23T18:04:54.937Z,30.83
2023-02-23T18:07:30.345Z,26.47
2023-02-23T18:10:05.636Z,35.60
2023-02-23T18:12:53.078Z,27.80
2023-02-23T18:15:32.193Z,31.67
2023-02-23T18:18:30.486Z,28.00
2023-02-23T18:21:03.911Z,31.30
2023-02-23T18:23:36.690Z,27.30
2023-02-23T18:26:14.444Z,24.87
2023-02-23T18:28:47.133Z,32.90
2023-02-23T18:31:24.003Z,30.40
2023-02-23T18:34:25.216Z,25.07
2023-02-23T18:36:59.127Z,28.90
2023-02-23T18:39:32.012Z,30.87
2023-02-23T18:42:03.256Z,28.40
2023-02-23T18:44:44.693Z,27.97
2023-02-23T18:47:18.831Z,28.33
2023-02-23T18:49:52.917Z,29.27
2023-02-23T18:52:34.708Z,26.80
2023-02-23T18:55:11.502Z,27.20
2023-02-23T18:57:57.296Z,24.33
2023-02-23T19:00:35.436Z,29.57
2023-02-23T19:03:22.289Z,30.63
2023-02-23T19:05:59.836Z,26.47
2023-02-23T19:08:42.952Z,27.70
2023-02-23T19:11:24.903Z,27.60
2023-02-23T19:14:01.579Z,30.53
2023-02-23T19:16:47.160Z,24.60
2023-02-23T19:19:27.557Z,26.60
2023-02-23T19:22:25.195Z,30.07
2023-02-23T19:25:04.103Z,28.60
2023-02-23T19:27:43.898Z,32.80
2023-02-23T19:30:24.200Z,29.00
2023-02-23T19:33:03.039Z,25.77
2023-02-23T19:35:38.987Z,28.03
2023-02-23T19:38:37.590Z,28.97
2023-02-23T19:41:17.276Z,25.20
2023-02-23T19:43:47.723Z,33.97
2023-02-23T19:46:25.798Z,31.60
2023-02-23T19:49:01.063Z,33.30
2023-02-23T19:51:40.426Z,30.77
2023-02-23T19:54:14.859Z,29.63
2023-02-23T19:56:45.901Z,33.00
2023-02-23T19:59:17.504Z,31.17
2023-02-23T20:01:54.670Z,29.30
2023-02-23T20:04:29.129Z,28.90
2023-02-23T20:07:13.869Z,28.43
2023-02-23T20:10:11.182Z,26.80
2023-02-23T20:12:59.794Z,27.27
2023-02-23T20:15:45.761Z,29.17
2023-02-23T20:18:19.064Z,29.83
2023-02-23T20:21:02.842Z,33.53
2023-02-23T20:23:39.948Z,28.50
2023-02-23T20:26:31.318Z,27.87
2023-02-23T20:29:13.638Z,28.43
2023-02-23T20:31:53.528Z,26.53
2023-02-23T20:37:32.120Z,33.70
2023-02-23T20:40:11.153Z,26.27
2023-02-23T20:42:45.804Z,32.23
2023-02-23T20:45:30.769Z,31.20
2023-02-23T20:48:16.576Z,27.37
2023-02-23T20:50:59.204Z,31.03
2023-02-23T20:53:30.941Z,30.97
2023-02-23T20:56:15.339Z,28.17
2023-02-23T21:01:40.547Z,29.27
2023-02-23T21:04:13.406Z,32.20
2023-02-23T21:06:46.155Z,28.20
2023-02-23T21:09:29.905Z,27.37
2023-02-23T21:12:00.914Z,28.17
2023-02-23T21:14:35.339Z,28.00
2023-02-23T21:17:10.558Z,34.20
2023-02-23T21:19:50.079Z,30.50
2023-02-23T21:22:31.778Z,31.33
2023-02-23T21:25:14.432Z,30.00
2023-02-23T21:27:50.670Z,36.43
2023-02-23T21:30:35.134Z,29.33
2023-02-23T21:33:17.463Z,30.47
2023-02-23T21:35:47.595Z,30.10
2023-02-23T21:38:17.085Z,28.23
2023-02-23T21:40:48.751Z,33.07
2023-02-23T21:43:29.608Z,28.97
2023-02-23T21:46:19.960Z,30.37
2023-02-23T21:48:57.618Z,29.40
2023-02-23T21:51:36.686Z,30.07
2023-02-23T21:54:14.028Z,34.40
2023-02-23T21:56:43.718Z,27.53
2023-02-23T21:59:16.617Z,32.50
2023-02-23T22:01:53.766Z,30.37
2023-02-23T22:04:25.091Z,32.17
2023-02-23T22:06:55.999Z,32.00
2023-02-23T22:09:27.694Z,31.20
2023-02-23T22:12:01.173Z,31.97
2023-02-23T22:14:29.533Z,30.40
2023-02-23T22:17:04.003Z,34.27
2023-02-23T22:19:35.914Z,29.83
2023-02-23T22:22:04.633Z,29.10
2023-02-23T22:24:34.503Z,34.67
2023-02-23T22:27:04.680Z,36.03
2023-02-23T22:29:38.669Z,41.87
2023-02-23T22:32:13.822Z,32.87
2023-02-23T22:34:43.781Z,39.33
2023-02-23T22:37:13.980Z,34.63
2023-02-23T22:39:51.084Z,31.67
2023-02-23T22:42:22.178Z,32.63
2023-02-23T22:44:59.933Z,38.80
2023-02-23T22:47:34.944Z,33.00
2023-02-23T22:50:07.023Z,37.17
2023-02-23T22:52:41.175Z,36.07
2023-02-23T22:55:24.386Z,35.13
2023-02-23T22:57:55.208Z,36.37
2023-02-23T23:00:27.922Z,34.47
2023-02-23T23:03:12.351Z,29.87
2023-02-23T23:05:44.045Z,33.50
2023-02-23T23:08:18.067Z,36.53
2023-02-23T23:10:50.804Z,28.23
2023-02-23T23:13:23.098Z,33.87
2023-02-23T23:15:55.236Z,30.67
2023-02-23T23:18:42.464Z,33.70
2023-02-23T23:21:17.466Z,32.60
2023-02-23T23:23:48.761Z,37.70
2023-02-23T23:26:20.226Z,34.83
2023-02-23T23:28:50.931Z,32.97
2023-02-23T23:31:25.637Z,30.13
2023-02-23T23:34:00.114Z,31.73
2023-02-23T23:36:33.234Z,35.33
2023-02-23T23:39:10.309Z,34.03
2023-02-23T23:41:49.013Z,33.83
2023-02-23T23:44:18.132Z,29.80
2023-02-23T23:46:50.800Z,31.63
2023-02-23T23:49:26.113Z,32.97
2023-02-23T23:51:57.936Z,36.30
2023-02-23T23:54:38.821Z,33.03
2023-02-23T23:57:13.893Z,34.67
2023-02-23T23:59:55.822Z,30.87
